Time;durP1;ratioP1;P1;durP2;ratioP2;P2;SDS_P1;SDS_P2;PMS_P1;PMS_P2;Temp;Humidity;BMP_temperature;BMP_pressure;BME280_temperature;BME280_humidity;BME280_pressure;Samples;Min_cycle;Max_cycle;Signal;HPM_P1;HPM_P2
2023/02/04 00:00:47;;;;;;;3.95;1.95;;;;;;;;;;4973429;28;20133;-59
2023/02/04 00:03:12;;;;;;;4.55;2.63;;;;;;;;;;4971069;28;20034;-62
2023/02/04 00:05:37;;;;;;;3.73;2.27;;;;;;;;;;4971123;28;20065;-61
2023/02/04 00:08:03;;;;;;;3.30;2.23;;;;;;;;;;4980425;28;20316;-63
2023/02/04 00:10:28;;;;;;;3.95;2.30;;;;;;;;;;5003818;28;21157;-62
2023/02/04 00:12:53;;;;;;;3.38;2.42;;;;;;;;;;4971526;28;20114;-61
2023/02/04 00:15:18;;;;;;;3.60;2.22;;;;;;;;;;4989245;28;20038;-60
2023/02/04 00:17:44;;;;;;;3.63;2.30;;;;;;;;;;4987201;28;20042;-63
2023/02/04 00:20:09;;;;;;;3.33;2.30;;;;;;;;;;4971374;28;20106;-60
2023/02/04 00:22:34;;;;;;;3.28;2.20;;;;;;;;;;4988005;28;20492;-61
2023/02/04 00:25:00;;;;;;;3.42;2.28;;;;;;;;;;4987281;28;20054;-60
2023/02/04 00:27:25;;;;;;;4.40;2.40;;;;;;;;;;4971616;28;20806;-61
2023/02/04 00:29:50;;;;;;;4.07;2.28;;;;;;;;;;4988305;28;20293;-59
2023/02/04 00:32:15;;;;;;;3.60;2.20;;;;;;;;;;4978289;28;20188;-62
2023/02/04 00:34:41;;;;;;;3.10;2.08;;;;;;;;;;4988169;28;20053;-65
2023/02/04 00:37:06;;;;;;;3.77;2.30;;;;;;;;;;4988050;28;20139;-61
2023/02/04 00:39:31;;;;;;;3.35;2.22;;;;;;;;;;4988005;28;20407;-59
2023/02/04 00:41:57;;;;;;;2.92;2.10;;;;;;;;;;4987762;28;20429;-63
2023/02/04 00:44:22;;;;;;;3.50;2.43;;;;;;;;;;4988156;28;20026;-63
2023/02/04 00:46:47;;;;;;;3.45;2.13;;;;;;;;;;4971943;28;20300;-62
2023/02/04 00:49:12;;;;;;;4.03;2.25;;;;;;;;;;4987445;28;20041;-63
2023/02/04 00:51:38;;;;;;;3.53;2.30;;;;;;;;;;4988022;28;20030;-65
2023/02/04 00:54:03;;;;;;;3.60;2.03;;;;;;;;;;5003647;28;20445;-60
2023/02/04 00:56:29;;;;;;;3.97;2.72;;;;;;;;;;4988402;28;20038;-61
2023/02/04 00:58:54;;;;;;;3.45;2.35;;;;;;;;;;4988187;28;20040;-67
2023/02/04 01:01:19;;;;;;;3.80;2.50;;;;;;;;;;4986866;28;20934;-62
2023/02/04 01:03:44;;;;;;;3.65;2.15;;;;;;;;;;4984241;28;20072;-61
2023/02/04 01:06:10;;;;;;;3.58;2.45;;;;;;;;;;4988382;28;20056;-59
2023/02/04 01:08:35;;;;;;;4.35;2.60;;;;;;;;;;4988177;28;20799;-58
2023/02/04 01:11:00;;;;;;;3.53;2.13;;;;;;;;;;4986510;28;20403;-61
2023/02/04 01:13:26;;;;;;;3.95;2.30;;;;;;;;;;4972617;28;20038;-61
2023/02/04 01:15:51;;;;;;;3.00;2.17;;;;;;;;;;4987897;28;20042;-62
2023/02/04 01:18:16;;;;;;;3.47;2.27;;;;;;;;;;5005596;28;20296;-67
2023/02/04 01:20:41;;;;;;;3.30;2.20;;;;;;;;;;4987123;28;20847;-63
2023/02/04 01:23:07;;;;;;;3.30;2.17;;;;;;;;;;4986464;28;20316;-65
2023/02/04 01:25:33;;;;;;;3.13;2.30;;;;;;;;;;4986044;28;20340;-62
2023/02/04 01:27:58;;;;;;;3.67;2.40;;;;;;;;;;4989290;28;20061;-62
2023/02/04 01:30:23;;;;;;;3.37;2.00;;;;;;;;;;5002910;28;20557;-62
2023/02/04 01:32:49;;;;;;;3.05;2.20;;;;;;;;;;4987555;28;20308;-62
2023/02/04 01:35:14;;;;;;;3.25;2.05;;;;;;;;;;4970503;28;20490;-62
2023/02/04 01:37:39;;;;;;;3.15;2.03;;;;;;;;;;4987472;28;20478;-58
2023/02/04 01:40:05;;;;;;;3.30;2.17;;;;;;;;;;4987344;28;20927;-63
2023/02/04 01:42:30;;;;;;;2.42;1.73;;;;;;;;;;5002845;28;20327;-63
2023/02/04 01:44:55;;;;;;;3.17;2.00;;;;;;;;;;4984177;28;20502;-68
2023/02/04 01:47:20;;;;;;;4.75;2.63;;;;;;;;;;4984532;28;20350;-60
2023/02/04 01:49:46;;;;;;;6.40;3.58;;;;;;;;;;4969073;28;20053;-62
2023/02/04 01:52:11;;;;;;;3.88;2.25;;;;;;;;;;4970603;28;20065;-60
2023/02/04 01:54:36;;;;;;;3.30;1.98;;;;;;;;;;4967618;28;20065;-61
2023/02/04 01:57:02;;;;;;;4.05;1.83;;;;;;;;;;4968316;28;20053;-62
2023/02/04 01:59:27;;;;;;;3.03;2.17;;;;;;;;;;4969012;28;20092;-64
2023/02/04 02:01:52;;;;;;;5.03;2.10;;;;;;;;;;4986206;28;20038;-60
2023/02/04 02:04:19;;;;;;;3.47;2.03;;;;;;;;;;4968725;28;20045;-60
2023/02/04 02:06:48;;;;;;;2.67;1.90;;;;;;;;;;5003080;28;20050;-61
2023/02/04 02:09:14;;;;;;;3.00;2.05;;;;;;;;;;4996722;28;20457;-62
2023/02/04 02:11:39;;;;;;;3.80;1.90;;;;;;;;;;4971553;28;20049;-59
2023/02/04 02:14:04;;;;;;;3.85;2.53;;;;;;;;;;4992310;28;20037;-63
2023/02/04 02:16:29;;;;;;;3.58;2.13;;;;;;;;;;4982798;28;20074;-61
2023/02/04 02:18:56;;;;;;;4.63;1.90;;;;;;;;;;5010191;28;20037;-62
2023/02/04 02:21:29;;;;;;;3.40;1.75;;;;;;;;;;4975673;28;20282;-60
2023/02/04 02:23:56;;;;;;;2.53;1.73;;;;;;;;;;4999506;28;20061;-63
2023/02/04 02:26:21;;;;;;;3.28;2.10;;;;;;;;;;4982092;28;20746;-61
2023/02/04 02:28:47;;;;;;;2.65;1.90;;;;;;;;;;4983664;28;20042;-62
2023/02/04 02:31:15;;;;;;;3.23;1.70;;;;;;;;;;4979093;28;20586;-63
2023/02/04 02:33:41;;;;;;;3.05;1.70;;;;;;;;;;4972162;28;20626;-58
2023/02/04 02:36:06;;;;;;;2.70;1.80;;;;;;;;;;4961974;28;20046;-62
2023/02/04 02:38:31;;;;;;;2.72;1.48;;;;;;;;;;4970608;28;20035;-60
2023/02/04 02:40:57;;;;;;;3.57;2.40;;;;;;;;;;4947902;28;20042;-65
2023/02/04 02:43:23;;;;;;;3.55;2.30;;;;;;;;;;4947185;28;20445;-63
2023/02/04 02:45:48;;;;;;;3.53;2.00;;;;;;;;;;4952066;28;20046;-60
2023/02/04 02:48:13;;;;;;;2.90;1.98;;;;;;;;;;4960473;28;20435;-61
2023/02/04 02:50:38;;;;;;;3.38;1.80;;;;;;;;;;4953578;28;20098;-60
2023/02/04 02:53:04;;;;;;;2.90;2.00;;;;;;;;;;4927754;29;20063;-63
2023/02/04 02:55:30;;;;;;;3.25;2.10;;;;;;;;;;4946472;28;20039;-61
2023/02/04 02:57:55;;;;;;;2.67;1.60;;;;;;;;;;4931439;28;20106;-61
2023/02/04 03:00:22;;;;;;;2.72;1.95;;;;;;;;;;4963027;28;20071;-62
2023/02/04 03:02:54;;;;;;;3.33;1.90;;;;;;;;;;4927814;29;20071;-64
2023/02/04 03:05:20;;;;;;;2.42;1.73;;;;;;;;;;4949014;28;20055;-59
2023/02/04 03:07:45;;;;;;;2.57;1.53;;;;;;;;;;4937644;28;20399;-61
2023/02/04 03:10:10;;;;;;;3.42;2.00;;;;;;;;;;4963189;28;20336;-64
2023/02/04 03:12:36;;;;;;;2.45;1.67;;;;;;;;;;4949047;28;20110;-60
2023/02/04 03:15:02;;;;;;;2.25;1.77;;;;;;;;;;4947075;28;20167;-62
2023/02/04 03:17:27;;;;;;;3.50;2.10;;;;;;;;;;4962615;28;20038;-58
2023/02/04 03:19:52;;;;;;;3.13;2.05;;;;;;;;;;4942194;28;20047;-62
2023/02/04 03:22:17;;;;;;;2.83;1.73;;;;;;;;;;4946943;28;20082;-60
2023/02/04 03:24:43;;;;;;;2.92;2.00;;;;;;;;;;4950184;28;20034;-60
2023/02/04 03:27:08;;;;;;;2.70;1.80;;;;;;;;;;4934324;28;20054;-59
2023/02/04 03:29:33;;;;;;;2.95;1.63;;;;;;;;;;4947253;28;20055;-62
2023/02/04 03:31:58;;;;;;;2.97;1.67;;;;;;;;;;4930823;28;20043;-61
2023/02/04 03:34:24;;;;;;;2.63;1.77;;;;;;;;;;4980627;28;20086;-62
2023/02/04 03:36:49;;;;;;;2.95;1.77;;;;;;;;;;4982458;28;20038;-62
2023/02/04 03:39:14;;;;;;;2.88;1.65;;;;;;;;;;4970802;28;20106;-62
2023/02/04 03:41:39;;;;;;;2.63;1.40;;;;;;;;;;4965730;28;20050;-61
2023/02/04 03:44:05;;;;;;;2.77;1.90;;;;;;;;;;4998926;28;20354;-63
2023/02/04 03:46:30;;;;;;;2.53;1.67;;;;;;;;;;4978458;28;20809;-64
2023/02/04 03:48:55;;;;;;;3.10;1.90;;;;;;;;;;4984979;28;20277;-59
2023/02/04 03:51:21;;;;;;;2.83;1.70;;;;;;;;;;4998450;28;20313;-58
2023/02/04 03:53:46;;;;;;;2.60;1.63;;;;;;;;;;4965654;28;20121;-60
2023/02/04 03:56:11;;;;;;;2.97;1.70;;;;;;;;;;5003675;28;20426;-61
2023/02/04 03:58:36;;;;;;;2.40;1.53;;;;;;;;;;4969187;28;20722;-58
2023/02/04 04:01:02;;;;;;;2.83;1.90;;;;;;;;;;4985151;28;20785;-62
2023/02/04 04:03:27;;;;;;;3.38;1.90;;;;;;;;;;5000748;28;20875;-63
2023/02/04 04:05:52;;;;;;;2.90;1.77;;;;;;;;;;4985110;28;20060;-62
2023/02/04 04:08:17;;;;;;;2.77;2.13;;;;;;;;;;5005512;28;20554;-59
2023/02/04 04:10:43;;;;;;;3.63;1.70;;;;;;;;;;5004236;28;20871;-61
2023/02/04 04:13:08;;;;;;;2.88;1.63;;;;;;;;;;4988878;28;20315;-60
2023/02/04 04:15:33;;;;;;;2.47;1.60;;;;;;;;;;4988263;28;20030;-61
2023/02/04 04:17:59;;;;;;;2.73;1.50;;;;;;;;;;4987970;28;20299;-57
2023/02/04 04:20:26;;;;;;;2.70;1.45;;;;;;;;;;4972353;28;20387;-62
2023/02/04 04:22:51;;;;;;;2.45;1.48;;;;;;;;;;5004441;28;20480;-61
2023/02/04 04:25:16;;;;;;;2.55;1.45;;;;;;;;;;4971253;28;20054;-58
2023/02/04 04:27:41;;;;;;;2.42;1.35;;;;;;;;;;4988105;28;20042;-60
2023/02/04 04:30:07;;;;;;;2.42;1.70;;;;;;;;;;4988702;28;20038;-64
2023/02/04 04:32:32;;;;;;;2.55;1.83;;;;;;;;;;5004546;28;20050;-58
2023/02/04 04:34:57;;;;;;;2.23;1.70;;;;;;;;;;4980980;28;20082;-62
2023/02/04 04:37:23;;;;;;;2.65;1.70;;;;;;;;;;4968852;28;20792;-63
2023/02/04 04:39:48;;;;;;;2.55;1.60;;;;;;;;;;4966033;28;20286;-61
2023/02/04 04:42:13;;;;;;;2.70;1.70;;;;;;;;;;4936059;28;20047;-62
2023/02/04 04:44:39;;;;;;;3.07;1.60;;;;;;;;;;4965818;28;20045;-60
2023/02/04 04:47:04;;;;;;;2.80;1.80;;;;;;;;;;4965691;28;20957;-65
2023/02/04 04:49:29;;;;;;;2.42;1.48;;;;;;;;;;4969060;28;20030;-63
2023/02/04 04:51:54;;;;;;;2.57;1.53;;;;;;;;;;4991178;28;20541;-58
2023/02/04 04:54:20;;;;;;;2.93;1.70;;;;;;;;;;4968869;28;20285;-57
2023/02/04 04:56:45;;;;;;;2.30;1.50;;;;;;;;;;4968177;28;20286;-61
2023/02/04 04:59:10;;;;;;;2.50;1.85;;;;;;;;;;4966164;28;20065;-62
2023/02/04 05:01:35;;;;;;;3.10;1.50;;;;;;;;;;4968043;28;20074;-57
2023/02/04 05:04:02;;;;;;;2.47;1.83;;;;;;;;;;4964003;28;20129;-61
2023/02/04 05:06:28;;;;;;;2.00;1.58;;;;;;;;;;4951817;28;20074;-62
2023/02/04 05:08:53;;;;;;;2.55;1.70;;;;;;;;;;4965990;28;20034;-60
2023/02/04 05:11:18;;;;;;;2.50;1.60;;;;;;;;;;4981187;28;20133;-60
2023/02/04 05:13:44;;;;;;;2.53;1.58;;;;;;;;;;4984553;28;20117;-63
2023/02/04 05:16:12;;;;;;;1.90;1.38;;;;;;;;;;4985714;28;20058;-63
2023/02/04 05:18:38;;;;;;;2.38;1.42;;;;;;;;;;4967773;28;20039;-63
2023/02/04 05:21:03;;;;;;;2.15;1.40;;;;;;;;;;4970073;28;20054;-59
2023/02/04 05:23:28;;;;;;;2.35;1.40;;;;;;;;;;4971560;28;20034;-60
2023/02/04 05:25:53;;;;;;;2.28;1.60;;;;;;;;;;4964280;28;20072;-60
2023/02/04 05:28:19;;;;;;;2.60;1.50;;;;;;;;;;4947974;28;20050;-62
2023/02/04 05:30:44;;;;;;;2.20;1.40;;;;;;;;;;4983810;28;20113;-65
2023/02/04 05:33:09;;;;;;;2.45;1.60;;;;;;;;;;4965904;28;20443;-61
2023/02/04 05:35:35;;;;;;;2.13;1.40;;;;;;;;;;4964606;28;20594;-64
2023/02/04 05:38:00;;;;;;;2.03;1.43;;;;;;;;;;4965820;28;20457;-63
2023/02/04 05:40:25;;;;;;;2.27;1.40;;;;;;;;;;4948263;28;20365;-62
2023/02/04 05:42:50;;;;;;;2.00;1.20;;;;;;;;;;4984377;28;20372;-59
2023/02/04 05:45:17;;;;;;;2.58;1.60;;;;;;;;;;4948777;28;20797;-59
2023/02/04 05:47:43;;;;;;;2.58;1.60;;;;;;;;;;4931482;28;20035;-63
2023/02/04 05:50:08;;;;;;;2.13;1.53;;;;;;;;;;4966495;28;20161;-62
2023/02/04 05:52:33;;;;;;;2.13;1.30;;;;;;;;;;4960765;28;20294;-61
2023/02/04 05:54:58;;;;;;;3.17;1.50;;;;;;;;;;4967496;28;20694;-61
2023/02/04 05:57:24;;;;;;;1.77;1.40;;;;;;;;;;4953163;28;20349;-63
2023/02/04 05:59:49;;;;;;;2.38;1.35;;;;;;;;;;4965254;28;20286;-61
2023/02/04 06:02:14;;;;;;;1.95;1.33;;;;;;;;;;4961853;28;20043;-58
2023/02/04 06:04:40;;;;;;;1.63;1.23;;;;;;;;;;4961577;28;20545;-60
2023/02/04 06:07:05;;;;;;;2.30;1.45;;;;;;;;;;4948214;28;20371;-59
2023/02/04 06:09:30;;;;;;;2.15;1.55;;;;;;;;;;4964626;28;20039;-60
2023/02/04 06:11:56;;;;;;;2.08;1.42;;;;;;;;;;4949092;28;20717;-58
2023/02/04 06:14:21;;;;;;;2.33;1.40;;;;;;;;;;4951216;28;21940;-62
2023/02/04 06:16:47;;;;;;;2.22;1.30;;;;;;;;;;4941255;28;20889;-62
2023/02/04 06:19:12;;;;;;;2.40;1.25;;;;;;;;;;4950633;28;20030;-63
2023/02/04 06:21:38;;;;;;;2.33;1.63;;;;;;;;;;4950288;28;20075;-60
2023/02/04 06:24:03;;;;;;;2.40;1.48;;;;;;;;;;4966371;28;20038;-60
2023/02/04 06:26:28;;;;;;;2.20;1.50;;;;;;;;;;4950495;28;20054;-58
2023/02/04 06:28:54;;;;;;;1.83;1.20;;;;;;;;;;4956055;28;20034;-66
2023/02/04 06:31:19;;;;;;;2.20;1.27;;;;;;;;;;4966437;28;20126;-60
2023/02/04 06:33:45;;;;;;;1.55;1.20;;;;;;;;;;4950041;28;20290;-60
2023/02/04 06:36:10;;;;;;;2.08;1.27;;;;;;;;;;4965400;28;20169;-59
2023/02/04 06:38:35;;;;;;;2.22;1.33;;;;;;;;;;4924156;28;20094;-60
2023/02/04 06:41:01;;;;;;;1.80;1.10;;;;;;;;;;4936185;28;20014;-59
2023/02/04 06:43:26;;;;;;;1.98;1.15;;;;;;;;;;4972429;28;20416;-61
2023/02/04 06:45:52;;;;;;;1.90;1.08;;;;;;;;;;4999364;28;20490;-63
2023/02/04 06:48:17;;;;;;;1.67;1.17;;;;;;;;;;4950549;28;20051;-65
2023/02/04 06:50:42;;;;;;;1.70;1.27;;;;;;;;;;4966494;28;20047;-64
2023/02/04 06:53:07;;;;;;;1.97;1.10;;;;;;;;;;4984001;28;21265;-63
2023/02/04 06:55:33;;;;;;;2.08;1.20;;;;;;;;;;4972496;28;20277;-63
2023/02/04 06:57:58;;;;;;;1.77;1.10;;;;;;;;;;4972607;28;20216;-62
2023/02/04 07:00:23;;;;;;;1.20;0.93;;;;;;;;;;4965777;28;20033;-64
2023/02/04 07:02:49;;;;;;;1.73;1.02;;;;;;;;;;4971117;28;20683;-58
2023/02/04 07:05:14;;;;;;;1.80;1.02;;;;;;;;;;4983897;28;20034;-63
2023/02/04 07:07:39;;;;;;;2.20;1.00;;;;;;;;;;4971399;28;20049;-62
2023/02/04 07:10:04;;;;;;;1.85;1.10;;;;;;;;;;4969077;28;20136;-62
2023/02/04 07:12:30;;;;;;;1.70;1.20;;;;;;;;;;4968863;28;20019;-64
2023/02/04 07:14:55;;;;;;;1.70;0.90;;;;;;;;;;4966476;28;20684;-65
2023/02/04 07:17:20;;;;;;;1.85;1.00;;;;;;;;;;4970332;28;20304;-63
2023/02/04 07:19:46;;;;;;;1.40;0.95;;;;;;;;;;4971049;28;20022;-57
2023/02/04 07:22:11;;;;;;;1.80;1.15;;;;;;;;;;4984352;28;20046;-61
2023/02/04 07:24:36;;;;;;;1.80;1.07;;;;;;;;;;4999260;28;20065;-60
2023/02/04 07:27:02;;;;;;;1.50;1.00;;;;;;;;;;4982842;28;20301;-64
2023/02/04 07:29:27;;;;;;;2.88;1.02;;;;;;;;;;4965619;28;20098;-60
2023/02/04 07:31:52;;;;;;;2.30;1.10;;;;;;;;;;4971745;28;20056;-63
2023/02/04 07:34:18;;;;;;;2.08;1.00;;;;;;;;;;4985033;28;20102;-60
2023/02/04 07:36:43;;;;;;;2.67;1.00;;;;;;;;;;4982974;28;20027;-58
2023/02/04 07:39:08;;;;;;;3.33;1.30;;;;;;;;;;4949304;28;20033;-61
2023/02/04 07:41:34;;;;;;;2.28;1.27;;;;;;;;;;4966983;28;20320;-66
2023/02/04 07:43:59;;;;;;;1.90;0.93;;;;;;;;;;4980269;28;20052;-61
2023/02/04 07:46:24;;;;;;;2.03;1.15;;;;;;;;;;4967443;28;20030;-60
2023/02/04 07:48:49;;;;;;;1.95;1.00;;;;;;;;;;4981955;28;20105;-61
2023/02/04 07:51:15;;;;;;;1.83;1.08;;;;;;;;;;4968684;28;20030;-60
2023/02/04 07:53:40;;;;;;;2.80;1.10;;;;;;;;;;4970407;28;20026;-60
2023/02/04 07:56:05;;;;;;;1.87;1.13;;;;;;;;;;4970382;28;20267;-61
2023/02/04 07:58:31;;;;;;;1.40;0.88;;;;;;;;;;4967257;28;20266;-58
2023/02/04 08:00:56;;;;;;;1.58;0.90;;;;;;;;;;4969867;28;20026;-59
2023/02/04 08:03:21;;;;;;;1.65;1.02;;;;;;;;;;4970805;28;20037;-61
2023/02/04 08:05:46;;;;;;;1.67;1.00;;;;;;;;;;4985489;28;20192;-61
2023/02/04 08:08:12;;;;;;;1.80;1.10;;;;;;;;;;4968913;28;20292;-58
2023/02/04 08:10:37;;;;;;;1.58;1.00;;;;;;;;;;4982152;28;20046;-61
2023/02/04 08:13:02;;;;;;;1.58;1.13;;;;;;;;;;4970646;28;20450;-64
2023/02/04 08:15:27;;;;;;;1.90;0.93;;;;;;;;;;4969290;28;20037;-58
2023/02/04 08:17:53;;;;;;;3.20;1.03;;;;;;;;;;4984330;28;20269;-61
2023/02/04 08:20:18;;;;;;;1.40;0.90;;;;;;;;;;4968792;28;20265;-59
2023/02/04 08:22:43;;;;;;;1.67;0.88;;;;;;;;;;4991806;28;20394;-60
2023/02/04 08:25:10;;;;;;;1.10;0.75;;;;;;;;;;4969835;28;20709;-59
2023/02/04 08:27:35;;;;;;;1.75;0.80;;;;;;;;;;5000016;28;20107;-62
2023/02/04 08:30:01;;;;;;;1.50;0.80;;;;;;;;;;5001345;28;20724;-55
2023/02/04 08:32:28;;;;;;;1.65;0.95;;;;;;;;;;4985601;28;20062;-61
2023/02/04 08:34:53;;;;;;;1.90;0.90;;;;;;;;;;4988125;28;20149;-61
2023/02/04 08:37:18;;;;;;;2.20;0.93;;;;;;;;;;4970047;28;21406;-60
2023/02/04 08:39:45;;;;;;;1.30;0.87;;;;;;;;;;4969379;28;20334;-60
2023/02/04 08:42:10;;;;;;;1.60;0.90;;;;;;;;;;4984539;28;20257;-59
2023/02/04 08:44:36;;;;;;;1.35;0.90;;;;;;;;;;4987855;28;20538;-59
2023/02/04 08:47:01;;;;;;;1.53;0.97;;;;;;;;;;4970503;28;20050;-62
2023/02/04 08:49:26;;;;;;;1.70;0.87;;;;;;;;;;4969394;28;20308;-59
2023/02/04 08:51:52;;;;;;;1.48;0.82;;;;;;;;;;5002256;28;20823;-57
2023/02/04 08:54:17;;;;;;;1.30;0.77;;;;;;;;;;4987945;28;20038;-61
2023/02/04 08:56:42;;;;;;;1.23;0.80;;;;;;;;;;4988181;28;20120;-61
2023/02/04 08:59:08;;;;;;;1.10;0.70;;;;;;;;;;4982607;28;20117;-56
2023/02/04 09:01:33;;;;;;;1.70;0.90;;;;;;;;;;4986640;28;20034;-60
2023/02/04 09:03:58;;;;;;;2.63;0.90;;;;;;;;;;4970881;28;20041;-59
2023/02/04 09:06:23;;;;;;;1.70;0.80;;;;;;;;;;5005517;28;20296;-61
2023/02/04 09:08:49;;;;;;;1.10;0.60;;;;;;;;;;4988361;28;20029;-61
2023/02/04 09:11:14;;;;;;;1.13;0.80;;;;;;;;;;4987569;28;20042;-60
2023/02/04 09:13:39;;;;;;;1.47;0.70;;;;;;;;;;4971833;28;20293;-64
2023/02/04 09:16:04;;;;;;;1.60;0.90;;;;;;;;;;4986001;28;20696;-58
2023/02/04 09:18:31;;;;;;;2.45;0.73;;;;;;;;;;4986134;28;20022;-61
2023/02/04 09:20:56;;;;;;;1.30;0.80;;;;;;;;;;4970955;28;20050;-58
2023/02/04 09:23:22;;;;;;;1.23;0.70;;;;;;;;;;4970862;28;20148;-60
2023/02/04 09:25:48;;;;;;;2.00;1.10;;;;;;;;;;4969512;28;20524;-58
2023/02/04 09:28:13;;;;;;;1.53;0.83;;;;;;;;;;5001235;28;20158;-61
2023/02/04 09:30:38;;;;;;;1.55;0.93;;;;;;;;;;4986746;28;20700;-59
2023/02/04 09:33:04;;;;;;;1.40;0.80;;;;;;;;;;4971000;28;20139;-60
2023/02/04 09:35:29;;;;;;;1.40;0.80;;;;;;;;;;4978064;28;20099;-62
2023/02/04 09:37:54;;;;;;;1.25;0.80;;;;;;;;;;4991118;28;20376;-64
2023/02/04 09:40:20;;;;;;;1.47;0.77;;;;;;;;;;4986140;28;20050;-57
2023/02/04 09:42:49;;;;;;;1.48;0.90;;;;;;;;;;4987770;28;20376;-58
2023/02/04 09:45:15;;;;;;;1.40;0.80;;;;;;;;;;4986784;28;20044;-63
2023/02/04 09:47:40;;;;;;;1.52;0.80;;;;;;;;;;4986276;28;20514;-57
2023/02/04 09:50:08;;;;;;;1.38;0.80;;;;;;;;;;4987041;28;20033;-63
2023/02/04 09:52:33;;;;;;;1.13;0.60;;;;;;;;;;5004306;28;20042;-58
2023/02/04 09:54:59;;;;;;;1.20;0.77;;;;;;;;;;4987301;28;20139;-60
2023/02/04 09:57:24;;;;;;;2.25;0.80;;;;;;;;;;5007131;28;20320;-59
2023/02/04 09:59:49;;;;;;;1.50;0.77;;;;;;;;;;5004245;28;20107;-61
2023/02/04 10:02:24;;;;;;;3.60;0.77;;;;;;;;;;5004090;28;20305;-61
2023/02/04 10:04:50;;;;;;;2.78;0.90;;;;;;;;;;4991366;28;20068;-63
2023/02/04 10:07:16;;;;;;;1.38;0.73;;;;;;;;;;4984732;28;20058;-59
2023/02/04 10:09:42;;;;;;;2.50;0.80;;;;;;;;;;5000426;28;20095;-60
2023/02/04 10:12:07;;;;;;;4.65;1.00;;;;;;;;;;5004891;28;20038;-61
2023/02/04 10:14:32;;;;;;;5.40;1.42;;;;;;;;;;4987066;28;20055;-60
2023/02/04 10:16:58;;;;;;;2.97;0.90;;;;;;;;;;4987931;28;20521;-59
2023/02/04 10:19:23;;;;;;;4.00;1.00;;;;;;;;;;5002125;28;20077;-59
2023/02/04 10:21:49;;;;;;;4.65;1.05;;;;;;;;;;5000921;28;20686;-57
2023/02/04 10:24:21;;;;;;;2.40;1.00;;;;;;;;;;4985724;28;20030;-60
2023/02/04 10:26:46;;;;;;;2.13;0.95;;;;;;;;;;5004066;28;20301;-59
2023/02/04 10:29:13;;;;;;;2.20;0.93;;;;;;;;;;4983957;28;20760;-59
2023/02/04 10:31:45;;;;;;;2.42;1.05;;;;;;;;;;4985342;28;20033;-58
2023/02/04 10:34:10;;;;;;;3.92;1.15;;;;;;;;;;5002247;28;20356;-60
2023/02/04 10:36:36;;;;;;;1.88;1.08;;;;;;;;;;4994486;28;20206;-58
2023/02/04 10:39:02;;;;;;;1.55;0.80;;;;;;;;;;4994476;28;20057;-60
2023/02/04 10:41:27;;;;;;;2.50;0.80;;;;;;;;;;4976640;28;20038;-61
2023/02/04 10:44:02;;;;;;;2.10;0.87;;;;;;;;;;4976433;28;20095;-61
2023/02/04 10:46:29;;;;;;;2.80;1.00;;;;;;;;;;5001511;28;20718;-58
2023/02/04 10:48:54;;;;;;;3.38;0.85;;;;;;;;;;4961305;28;20577;-59
2023/02/04 10:51:19;;;;;;;1.73;1.00;;;;;;;;;;4975422;28;20129;-59
2023/02/04 10:56:28;;;;;;;1.85;1.00;;;;;;;;;;4990286;28;20297;-59
2023/02/04 10:58:53;;;;;;;2.53;0.90;;;;;;;;;;4964460;28;20038;-60
2023/02/04 11:01:19;;;;;;;2.03;1.10;;;;;;;;;;4998756;28;20396;-59
2023/02/04 11:03:44;;;;;;;1.80;0.90;;;;;;;;;;4978873;28;20029;-60
2023/02/04 11:06:13;;;;;;;2.38;1.00;;;;;;;;;;4998242;28;20344;-61
2023/02/04 11:08:39;;;;;;;1.90;0.80;;;;;;;;;;4980630;28;20042;-61
2023/02/04 11:11:17;;;;;;;2.42;0.80;;;;;;;;;;4971283;28;20039;-60
2023/02/04 11:13:48;;;;;;;2.97;1.10;;;;;;;;;;5011511;28;20037;-60
2023/02/04 11:16:17;;;;;;;3.25;0.90;;;;;;;;;;4969528;28;20069;-59
2023/02/04 11:18:52;;;;;;;2.95;1.55;;;;;;;;;;4987379;28;20096;-59
2023/02/04 11:21:25;;;;;;;1.70;1.00;;;;;;;;;;4958190;28;20049;-61
2023/02/04 11:23:50;;;;;;;2.45;0.90;;;;;;;;;;4986673;28;20058;-60
2023/02/04 11:26:19;;;;;;;1.95;1.00;;;;;;;;;;4972718;28;20088;-58
2023/02/04 11:28:44;;;;;;;2.25;1.00;;;;;;;;;;4990347;28;20101;-59
2023/02/04 11:31:18;;;;;;;2.38;0.93;;;;;;;;;;4971582;28;20109;-59
2023/02/04 11:33:43;;;;;;;2.40;1.08;;;;;;;;;;5002372;28;20064;-59
2023/02/04 11:36:10;;;;;;;2.80;1.08;;;;;;;;;;4987436;28;20074;-60
2023/02/04 11:38:35;;;;;;;1.90;0.93;;;;;;;;;;4989907;28;20034;-58
2023/02/04 11:41:00;;;;;;;2.87;1.00;;;;;;;;;;4986693;28;20463;-61
2023/02/04 11:43:26;;;;;;;1.92;1.00;;;;;;;;;;4969510;28;20328;-59
2023/02/04 11:46:09;;;;;;;2.38;1.00;;;;;;;;;;4985856;28;20042;-61
2023/02/04 11:48:35;;;;;;;2.47;1.02;;;;;;;;;;4985161;28;20026;-56
2023/02/04 11:51:01;;;;;;;2.50;1.00;;;;;;;;;;4985759;28;20054;-58
2023/02/04 11:53:29;;;;;;;2.10;1.10;;;;;;;;;;4985919;28;20618;-60
2023/02/04 11:55:55;;;;;;;1.90;0.90;;;;;;;;;;4985787;28;20034;-57
2023/02/04 11:58:21;;;;;;;1.90;1.00;;;;;;;;;;4979226;28;20546;-58
2023/02/04 12:00:46;;;;;;;13.82;2.70;;;;;;;;;;4980753;28;20316;-61
2023/02/04 12:03:22;;;;;;;3.67;1.20;;;;;;;;;;4982537;28;20058;-60
2023/02/04 12:05:48;;;;;;;7.53;1.30;;;;;;;;;;4982991;28;20034;-60
2023/02/04 12:08:23;;;;;;;7.47;1.27;;;;;;;;;;4986686;28;20031;-57
2023/02/04 12:10:57;;;;;;;8.45;1.60;;;;;;;;;;4986786;28;20227;-62
2023/02/04 12:13:23;;;;;;;9.20;1.25;;;;;;;;;;4979382;28;20092;-56
2023/02/04 12:15:53;;;;;;;5.65;1.40;;;;;;;;;;4970975;28;20038;-57
2023/02/04 12:18:18;;;;;;;5.68;1.48;;;;;;;;;;4972686;28;20050;-58
2023/02/04 12:20:43;;;;;;;4.73;1.47;;;;;;;;;;4973217;28;20049;-60
2023/02/04 12:23:09;;;;;;;4.40;1.30;;;;;;;;;;4971652;28;20290;-60
2023/02/04 12:25:34;;;;;;;3.95;1.23;;;;;;;;;;4954720;28;20073;-59
2023/02/04 12:27:59;;;;;;;6.25;1.23;;;;;;;;;;4968899;28;20039;-62
2023/02/04 12:30:25;;;;;;;5.25;1.20;;;;;;;;;;4959409;28;20078;-60
2023/02/04 12:32:50;;;;;;;6.18;1.20;;;;;;;;;;4971201;28;20045;-58
2023/02/04 12:35:15;;;;;;;3.95;1.42;;;;;;;;;;4969506;28;20137;-62
2023/02/04 12:37:41;;;;;;;4.32;1.30;;;;;;;;;;4970254;28;20710;-60
2023/02/04 12:40:06;;;;;;;5.43;1.35;;;;;;;;;;4958959;28;20782;-60
2023/02/04 12:42:32;;;;;;;3.45;1.20;;;;;;;;;;4968258;28;20085;-60
2023/02/04 12:44:57;;;;;;;3.65;1.60;;;;;;;;;;4958977;28;20046;-60
2023/02/04 12:47:22;;;;;;;3.33;1.17;;;;;;;;;;4970478;28;20517;-60
2023/02/04 12:49:47;;;;;;;3.25;1.35;;;;;;;;;;4959724;28;20357;-63
2023/02/04 12:52:13;;;;;;;3.23;1.07;;;;;;;;;;4971005;28;20431;-62
2023/02/04 12:54:38;;;;;;;3.40;1.27;;;;;;;;;;4971330;28;20301;-59
2023/02/04 12:57:03;;;;;;;5.17;1.20;;;;;;;;;;4961455;28;20093;-59
2023/02/04 12:59:30;;;;;;;3.47;1.20;;;;;;;;;;4963987;28;20308;-61
2023/02/04 13:01:55;;;;;;;4.20;0.93;;;;;;;;;;4985524;28;20801;-61
2023/02/04 13:04:21;;;;;;;3.85;1.25;;;;;;;;;;4976145;28;20050;-61
2023/02/04 13:06:46;;;;;;;2.20;1.00;;;;;;;;;;4981715;28;20050;-58
2023/02/04 13:09:11;;;;;;;3.50;1.17;;;;;;;;;;4976828;28;20037;-60
2023/02/04 13:11:36;;;;;;;2.92;1.30;;;;;;;;;;4978830;28;20320;-62
2023/02/04 13:14:02;;;;;;;2.33;1.20;;;;;;;;;;4975940;28;20422;-62
2023/02/04 13:16:27;;;;;;;2.85;1.10;;;;;;;;;;4984462;28;20062;-59
2023/02/04 13:18:52;;;;;;;2.13;1.10;;;;;;;;;;4961419;28;20491;-61
2023/02/04 13:21:18;;;;;;;4.18;1.48;;;;;;;;;;4952643;28;20332;-59
2023/02/04 13:23:43;;;;;;;2.97;1.48;;;;;;;;;;4966186;28;20046;-58
2023/02/04 13:26:08;;;;;;;3.45;1.20;;;;;;;;;;4970883;28;20047;-60
2023/02/04 13:28:34;;;;;;;8.18;1.48;;;;;;;;;;4960646;28;20034;-59
2023/02/04 13:30:59;;;;;;;2.78;1.00;;;;;;;;;;4957626;28;20050;-61
2023/02/04 13:33:24;;;;;;;2.45;0.85;;;;;;;;;;4967432;28;20418;-62
2023/02/04 13:35:50;;;;;;;2.67;1.02;;;;;;;;;;4972021;28;20278;-59
2023/02/04 13:38:15;;;;;;;3.00;1.17;;;;;;;;;;4967574;28;20073;-57
2023/02/04 13:40:40;;;;;;;3.57;1.10;;;;;;;;;;4969929;28;20296;-61
2023/02/04 13:43:05;;;;;;;3.80;1.00;;;;;;;;;;4967578;28;20380;-62
2023/02/04 13:45:31;;;;;;;3.00;1.00;;;;;;;;;;4966962;28;20050;-58
2023/02/04 13:47:56;;;;;;;3.03;1.00;;;;;;;;;;4982681;28;20380;-61
2023/02/04 13:50:21;;;;;;;3.27;1.17;;;;;;;;;;4967493;28;20298;-59
2023/02/04 13:52:47;;;;;;;2.95;0.80;;;;;;;;;;4972972;28;20357;-59
2023/02/04 13:55:12;;;;;;;2.93;1.20;;;;;;;;;;4969672;28;20870;-57
2023/02/04 13:57:37;;;;;;;3.42;1.27;;;;;;;;;;4968041;28;20136;-61
2023/02/04 14:00:03;;;;;;;2.37;1.00;;;;;;;;;;4966281;28;20572;-59
2023/02/04 14:02:28;;;;;;;2.40;1.02;;;;;;;;;;4949243;28;20360;-60
2023/02/04 14:04:54;;;;;;;2.13;1.00;;;;;;;;;;4966196;28;20122;-56
2023/02/04 14:07:19;;;;;;;3.22;1.38;;;;;;;;;;4964680;28;20050;-56
2023/02/04 14:09:47;;;;;;;1.95;1.10;;;;;;;;;;4966750;28;20047;-61
2023/02/04 14:12:12;;;;;;;3.33;1.20;;;;;;;;;;4973163;28;20050;-59
2023/02/04 14:14:37;;;;;;;3.70;1.10;;;;;;;;;;4958201;28;20510;-60
2023/02/04 14:17:03;;;;;;;4.38;1.20;;;;;;;;;;4966667;28;20290;-59
2023/02/04 14:19:28;;;;;;;3.22;1.30;;;;;;;;;;4968590;28;20472;-59
2023/02/04 14:21:53;;;;;;;2.37;1.00;;;;;;;;;;4969843;28;20169;-61
2023/02/04 14:24:19;;;;;;;1.85;0.98;;;;;;;;;;4967545;28;20305;-58
2023/02/04 14:26:45;;;;;;;1.80;1.00;;;;;;;;;;4967694;28;20086;-60
2023/02/04 14:29:10;;;;;;;2.72;1.00;;;;;;;;;;4965805;28;20034;-57
2023/02/04 14:31:36;;;;;;;1.92;1.00;;;;;;;;;;4966745;28;20546;-62
2023/02/04 14:34:01;;;;;;;2.35;0.90;;;;;;;;;;4968573;28;20491;-61
2023/02/04 14:36:26;;;;;;;2.30;1.00;;;;;;;;;;4967842;28;20524;-60